Time;durP1;ratioP1;P1;durP2;ratioP2;P2;SDS_P1;SDS_P2;PMS_P1;PMS_P2;Temp;Humidity;BMP_temperature;BMP_pressure;BME280_temperature;BME280_humidity;BME280_pressure;Samples;Min_cycle;Max_cycle;Signal;HPM_P1;HPM_P2
2023/09/28 00:00:37;;;;;;;9.57;7.40;;;19.60;99.90;;;;;;5066812;28;20869;-82
2023/09/28 00:03:08;;;;;;;10.50;7.97;;;19.60;99.90;;;;;;5066909;28;20428;-82
2023/09/28 00:05:34;;;;;;;12.37;7.30;;;19.60;99.90;;;;;;5065195;28;20464;-81
2023/09/28 00:08:00;;;;;;;8.20;7.13;;;19.60;99.90;;;;;;5065414;28;20714;-82
2023/09/28 00:10:26;;;;;;;11.70;8.43;;;19.60;99.90;;;;;;5064948;28;20440;-81
2023/09/28 00:12:53;;;;;;;10.03;8.03;;;19.60;99.90;;;;;;5066401;28;20828;-81
2023/09/28 00:15:20;;;;;;;10.23;9.07;;;19.60;99.90;;;;;;5065206;28;20199;-81
2023/09/28 00:17:48;;;;;;;8.50;7.70;;;19.60;99.90;;;;;;5064522;28;20424;-81
2023/09/28 00:20:19;;;;;;;10.23;7.50;;;19.50;99.90;;;;;;5066075;28;20940;-81
2023/09/28 00:22:49;;;;;;;9.10;7.90;;;19.50;99.90;;;;;;5065449;28;20412;-82
2023/09/28 00:25:16;;;;;;;10.30;8.60;;;19.50;99.90;;;;;;5065952;28;20469;-82
2023/09/28 00:27:46;;;;;;;9.10;8.20;;;19.50;99.90;;;;;;5065249;28;20942;-80
2023/09/28 00:30:14;;;;;;;12.47;8.40;;;19.40;99.90;;;;;;5066054;28;20425;-81
2023/09/28 00:32:42;;;;;;;9.33;8.40;;;19.40;99.90;;;;;;5066645;28;20831;-81
2023/09/28 00:35:08;;;;;;;11.57;8.13;;;19.40;99.90;;;;;;5064192;28;20518;-81
2023/09/28 00:37:33;;;;;;;9.83;8.80;;;19.30;99.90;;;;;;5063644;28;20493;-81
2023/09/28 00:39:59;;;;;;;8.60;7.70;;;19.30;99.90;;;;;;5065926;28;20449;-82
2023/09/28 00:42:28;;;;;;;10.67;8.27;;;19.30;99.90;;;;;;5065003;28;20210;-82
2023/09/28 00:44:53;;;;;;;10.57;8.20;;;19.20;99.90;;;;;;5064197;28;20512;-81
2023/09/28 00:47:19;;;;;;;15.10;8.30;;;19.20;99.90;;;;;;5066622;28;20416;-80
2023/09/28 00:49:46;;;;;;;12.37;8.43;;;19.20;99.90;;;;;;5066236;28;20646;-81
2023/09/28 00:52:16;;;;;;;9.77;8.33;;;19.20;99.90;;;;;;5064868;28;20471;-82
2023/09/28 00:54:44;;;;;;;9.03;7.97;;;19.10;99.90;;;;;;5064330;28;20444;-81
2023/09/28 00:57:10;;;;;;;9.30;8.03;;;19.10;99.90;;;;;;5064484;28;20475;-82
2023/09/28 00:59:36;;;;;;;9.70;7.43;;;19.00;99.90;;;;;;5064344;28;20473;-81
2023/09/28 01:02:02;;;;;;;8.70;7.80;;;19.00;99.90;;;;;;5066487;28;20851;-81
2023/09/28 01:04:27;;;;;;;10.20;7.57;;;19.00;99.90;;;;;;5064037;28;20206;-81
2023/09/28 01:06:54;;;;;;;12.60;8.37;;;19.00;99.90;;;;;;5064631;28;20415;-82
2023/09/28 01:09:21;;;;;;;12.47;8.47;;;19.00;99.90;;;;;;5064309;28;20659;-80
2023/09/28 01:11:48;;;;;;;11.30;8.90;;;18.90;99.90;;;;;;5066225;28;20897;-82
2023/09/28 01:14:14;;;;;;;10.30;8.50;;;18.80;99.90;;;;;;5064053;28;20422;-82
2023/09/28 01:16:40;;;;;;;11.93;9.50;;;18.80;99.90;;;;;;5064496;28;20424;-81
2023/09/28 01:19:06;;;;;;;11.00;9.00;;;18.80;99.90;;;;;;5063882;28;20944;-81
2023/09/28 01:21:32;;;;;;;10.10;8.60;;;18.70;99.90;;;;;;5064825;28;20184;-80
2023/09/28 01:23:57;;;;;;;10.87;9.30;;;18.70;99.90;;;;;;5065527;28;20545;-80
2023/09/28 01:26:25;;;;;;;11.97;8.67;;;18.70;99.90;;;;;;5065636;28;20203;-81
2023/09/28 01:28:56;;;;;;;12.10;9.13;;;18.70;99.90;;;;;;5065283;28;20317;-82
2023/09/28 01:31:22;;;;;;;12.03;9.00;;;18.70;99.90;;;;;;5069911;28;20958;-81
2023/09/28 01:33:48;;;;;;;11.00;8.47;;;18.80;99.90;;;;;;5069347;28;20448;-82
2023/09/28 01:36:14;;;;;;;9.73;7.90;;;18.80;99.90;;;;;;5069378;28;20183;-80
2023/09/28 01:39:07;;;;;;;9.23;7.87;;;18.80;99.90;;;;;;5067070;28;20424;-82
2023/09/28 01:41:32;;;;;;;10.63;8.80;;;18.80;99.90;;;;;;5069653;28;20248;-81
2023/09/28 01:43:58;;;;;;;12.50;9.27;;;18.90;99.90;;;;;;5068930;28;20416;-80
2023/09/28 01:46:23;;;;;;;12.20;10.60;;;18.90;99.90;;;;;;5068130;28;20290;-81
2023/09/28 01:48:49;;;;;;;11.30;10.17;;;18.90;99.90;;;;;;5067756;28;20179;-82
2023/09/28 01:51:15;;;;;;;11.37;8.53;;;19.00;99.90;;;;;;5069310;28;20267;-82
2023/09/28 01:53:40;;;;;;;11.83;8.70;;;19.00;99.90;;;;;;5069135;28;20224;-80
2023/09/28 01:56:06;;;;;;;10.80;8.97;;;19.00;99.90;;;;;;5069143;28;20683;-82
2023/09/28 01:58:32;;;;;;;10.90;9.30;;;19.00;99.90;;;;;;5067581;28;20181;-81
2023/09/28 02:00:57;;;;;;;11.50;8.87;;;19.00;99.90;;;;;;5067932;28;20843;-81
2023/09/28 02:03:23;;;;;;;10.17;8.97;;;19.00;99.90;;;;;;5067473;28;20271;-81
2023/09/28 02:05:49;;;;;;;10.87;9.50;;;19.00;99.90;;;;;;5067235;28;20302;-82
2023/09/28 02:08:15;;;;;;;13.33;8.90;;;19.00;99.90;;;;;;5069095;28;20180;-83
2023/09/28 02:10:45;;;;;;;13.70;9.07;;;19.00;99.90;;;;;;5067058;28;20719;-82
2023/09/28 02:13:11;;;;;;;9.70;8.70;;;19.00;99.90;;;;;;5068689;28;20201;-81
2023/09/28 02:15:37;;;;;;;10.83;9.03;;;19.00;99.90;;;;;;5068651;28;20435;-82
2023/09/28 02:18:04;;;;;;;11.07;8.40;;;18.90;99.90;;;;;;5067816;28;20243;-81
2023/09/28 02:20:30;;;;;;;12.73;8.73;;;18.90;99.90;;;;;;5067052;28;20683;-81
2023/09/28 02:22:56;;;;;;;10.70;8.70;;;18.90;99.90;;;;;;5067404;28;21084;-80
2023/09/28 02:25:26;;;;;;;8.40;7.60;;;18.90;99.90;;;;;;5068207;28;20434;-82
2023/09/28 02:27:52;;;;;;;11.40;8.33;;;18.80;99.90;;;;;;5067160;28;20219;-80
2023/09/28 02:30:20;;;;;;;12.03;8.70;;;18.80;99.90;;;;;;5066955;28;20467;-81
2023/09/28 02:32:47;;;;;;;10.10;8.80;;;18.70;99.90;;;;;;5068679;28;20456;-81
2023/09/28 02:35:14;;;;;;;10.37;8.23;;;18.70;99.90;;;;;;5066608;28;20590;-82
2023/09/28 02:37:41;;;;;;;9.33;8.43;;;18.70;99.90;;;;;;5068513;28;20420;-81
2023/09/28 02:40:09;;;;;;;10.63;9.40;;;18.60;99.90;;;;;;5066944;28;20433;-81
2023/09/28 02:42:35;;;;;;;12.03;9.70;;;18.60;99.90;;;;;;5067957;28;20431;-82
2023/09/28 02:45:01;;;;;;;9.87;8.87;;;18.60;99.90;;;;;;5066597;28;20827;-81
2023/09/28 02:47:27;;;;;;;9.63;8.13;;;18.60;99.90;;;;;;5068098;28;20179;-80
2023/09/28 02:49:54;;;;;;;10.20;8.43;;;18.60;99.90;;;;;;5067816;28;20661;-82
2023/09/28 02:52:20;;;;;;;9.57;8.57;;;18.60;99.90;;;;;;5067071;28;20881;-82
2023/09/28 02:54:46;;;;;;;10.83;8.73;;;18.60;99.90;;;;;;5066414;28;20527;-81
2023/09/28 02:57:13;;;;;;;11.00;8.60;;;18.60;99.90;;;;;;5067927;28;20184;-82
2023/09/28 02:59:38;;;;;;;10.03;8.53;;;18.50;99.90;;;;;;5067730;28;20428;-81
2023/09/28 03:02:05;;;;;;;11.90;8.33;;;18.50;99.90;;;;;;5067138;28;20515;-82
2023/09/28 03:04:34;;;;;;;10.20;9.07;;;18.50;99.90;;;;;;5066313;28;20676;-81
2023/09/28 03:07:00;;;;;;;14.63;9.83;;;18.50;99.90;;;;;;5066604;28;20796;-82
2023/09/28 03:09:27;;;;;;;11.67;9.33;;;18.40;99.90;;;;;;5067545;28;20443;-81
2023/09/28 03:11:54;;;;;;;13.40;9.93;;;18.40;99.90;;;;;;5068101;28;21042;-81
2023/09/28 03:14:20;;;;;;;11.90;8.97;;;18.50;99.90;;;;;;5067520;28;20465;-81
2023/09/28 03:16:45;;;;;;;13.10;9.60;;;18.50;99.90;;;;;;5066749;28;20420;-82
2023/09/28 03:19:11;;;;;;;11.57;9.13;;;18.60;99.90;;;;;;5067515;28;20420;-82
2023/09/28 03:21:37;;;;;;;12.77;10.17;;;18.60;99.90;;;;;;5066567;28;20187;-82
2023/09/28 03:24:03;;;;;;;11.20;9.30;;;18.70;99.90;;;;;;5067377;28;20180;-82
2023/09/28 03:26:30;;;;;;;10.00;8.93;;;18.60;99.90;;;;;;5066160;28;20451;-82
2023/09/28 03:28:56;;;;;;;11.43;8.87;;;18.50;99.90;;;;;;5067241;28;20423;-82
2023/09/28 03:31:22;;;;;;;11.97;9.47;;;18.50;99.90;;;;;;5067384;28;20756;-82
2023/09/28 03:33:47;;;;;;;17.03;9.30;;;18.40;99.90;;;;;;5065912;28;20688;-81
2023/09/28 03:36:13;;;;;;;10.47;9.47;;;18.40;99.90;;;;;;5065878;28;21024;-82
2023/09/28 03:38:39;;;;;;;12.93;8.93;;;18.40;99.90;;;;;;5065834;28;20182;-84
2023/09/28 03:41:08;;;;;;;10.83;9.40;;;18.30;99.90;;;;;;5067264;28;20186;-83
2023/09/28 03:43:33;;;;;;;12.60;9.20;;;18.30;99.90;;;;;;5064349;28;20238;-82
2023/09/28 03:45:59;;;;;;;13.30;9.47;;;18.20;99.90;;;;;;5067249;28;20539;-84
2023/09/28 03:48:25;;;;;;;12.60;9.60;;;18.20;99.90;;;;;;5065431;28;20679;-81
2023/09/28 03:50:51;;;;;;;11.83;10.53;;;18.20;99.90;;;;;;5065710;28;20258;-82
2023/09/28 03:53:17;;;;;;;13.77;9.33;;;18.20;99.90;;;;;;5066572;28;20467;-81
2023/09/28 03:55:46;;;;;;;11.63;9.33;;;18.20;99.90;;;;;;5065124;28;20711;-82
2023/09/28 03:58:12;;;;;;;11.57;9.90;;;18.20;99.90;;;;;;5065442;28;20434;-82
2023/09/28 04:00:37;;;;;;;13.30;9.97;;;18.20;99.90;;;;;;5066497;28;20809;-81
2023/09/28 04:03:03;;;;;;;11.37;9.40;;;18.10;99.90;;;;;;5066589;28;20663;-82
2023/09/28 04:05:29;;;;;;;11.23;8.73;;;18.10;99.90;;;;;;5066459;28;20185;-81
2023/09/28 04:07:55;;;;;;;18.23;10.20;;;18.00;99.90;;;;;;5075231;28;20433;-82
2023/09/28 04:10:21;;;;;;;11.00;9.40;;;18.00;99.90;;;;;;5084537;28;20562;-82
2023/09/28 04:12:46;;;;;;;10.43;8.60;;;18.00;99.90;;;;;;5085100;28;20312;-80
2023/09/28 04:15:12;;;;;;;12.17;9.40;;;17.90;99.90;;;;;;5085993;28;20999;-82
2023/09/28 04:17:37;;;;;;;16.03;9.80;;;17.80;99.90;;;;;;5087187;28;20223;-80
2023/09/28 04:20:09;;;;;;;11.77;8.70;;;17.90;99.90;;;;;;5084636;28;20720;-81
2023/09/28 04:22:34;;;;;;;13.47;10.30;;;17.70;99.90;;;;;;5084773;28;20216;-82
2023/09/28 04:25:01;;;;;;;12.03;9.30;;;17.80;99.90;;;;;;5083489;28;20982;-81
2023/09/28 04:27:27;;;;;;;14.40;9.10;;;17.80;99.90;;;;;;5083309;28;20178;-82
2023/09/28 04:29:52;;;;;;;12.20;9.33;;;17.80;99.90;;;;;;5081510;28;20522;-82
2023/09/28 04:32:18;;;;;;;13.10;9.80;;;17.70;99.90;;;;;;5082861;28;20472;-80
2023/09/28 04:34:44;;;;;;;10.87;8.67;;;17.70;99.90;;;;;;5083396;28;20476;-81
2023/09/28 04:37:10;;;;;;;15.57;10.07;;;17.60;99.90;;;;;;5081773;28;20626;-81
2023/09/28 04:39:35;;;;;;;11.77;9.27;;;17.60;99.90;;;;;;5080751;28;20212;-80
2023/09/28 04:42:01;;;;;;;11.07;9.10;;;17.50;99.90;;;;;;5082848;28;20464;-82
2023/09/28 04:44:27;;;;;;;12.53;8.97;;;17.60;99.90;;;;;;5083025;28;20261;-80
2023/09/28 04:46:53;;;;;;;11.50;9.63;;;17.50;99.90;;;;;;5080515;28;20177;-82
2023/09/28 04:49:19;;;;;;;18.70;9.33;;;17.50;99.90;;;;;;5080937;28;20482;-82
2023/09/28 04:51:45;;;;;;;12.67;9.73;;;17.60;99.90;;;;;;5084244;28;20209;-84
2023/09/28 04:54:11;;;;;;;11.77;9.20;;;17.50;99.90;;;;;;5083098;28;20210;-82
2023/09/28 04:56:36;;;;;;;10.70;8.90;;;17.50;99.90;;;;;;5083667;28;20640;-83
2023/09/28 04:59:02;;;;;;;12.00;9.77;;;17.50;99.90;;;;;;5081291;28;20440;-83
2023/09/28 05:01:28;;;;;;;11.50;10.00;;;17.60;99.90;;;;;;5084074;28;20283;-85
2023/09/28 05:03:54;;;;;;;13.80;9.67;;;17.60;99.90;;;;;;5082680;28;21005;-83
2023/09/28 05:06:20;;;;;;;11.47;9.70;;;17.50;99.90;;;;;;5082515;28;20464;-81
2023/09/28 05:08:46;;;;;;;13.53;9.97;;;17.50;99.90;;;;;;5081712;28;20678;-83
2023/09/28 05:11:11;;;;;;;15.80;9.60;;;17.60;99.90;;;;;;5081496;28;20479;-81
2023/09/28 05:13:37;;;;;;;10.43;9.30;;;17.60;99.90;;;;;;5082978;28;20220;-83
2023/09/28 05:16:03;;;;;;;12.27;10.53;;;17.60;99.90;;;;;;5086437;28;20402;-81
2023/09/28 05:18:29;;;;;;;11.57;9.80;;;17.60;99.90;;;;;;5082623;28;20233;-83
2023/09/28 05:20:55;;;;;;;12.03;9.63;;;17.60;99.90;;;;;;5083411;28;20200;-85
2023/09/28 05:23:21;;;;;;;16.10;12.53;;;17.70;99.90;;;;;;5084474;28;20414;-86
2023/09/28 05:25:47;;;;;;;10.37;9.27;;;17.80;99.90;;;;;;5080291;28;20826;-80
2023/09/28 05:28:13;;;;;;;16.53;10.40;;;17.80;99.90;;;;;;5080033;28;20590;-80
2023/09/28 05:30:38;;;;;;;12.70;10.27;;;17.80;99.90;;;;;;5079547;28;20205;-81
2023/09/28 05:33:04;;;;;;;13.40;10.63;;;17.80;99.90;;;;;;5070252;28;20864;-80
2023/09/28 05:35:30;;;;;;;15.57;11.43;;;17.90;99.90;;;;;;5071529;28;20212;-83
2023/09/28 05:37:55;;;;;;;15.10;11.60;;;17.90;99.90;;;;;;5078861;28;20535;-81
2023/09/28 05:40:21;;;;;;;16.63;11.43;;;17.90;99.90;;;;;;5077268;28;20200;-80
2023/09/28 05:42:48;;;;;;;15.70;11.73;;;17.90;99.90;;;;;;5082621;28;20197;-83
2023/09/28 05:45:14;;;;;;;20.10;13.60;;;18.00;99.90;;;;;;5081888;28;20514;-83
2023/09/28 05:47:40;;;;;;;19.03;14.00;;;18.00;99.90;;;;;;5076834;28;20421;-83
2023/09/28 05:52:55;;;;;;;18.77;13.20;;;18.00;99.90;;;;;;5076587;28;20472;-84
2023/09/28 05:55:22;;;;;;;17.50;13.00;;;18.10;99.90;;;;;;5074720;28;20518;-83
2023/09/28 05:57:47;;;;;;;14.13;11.93;;;18.10;99.90;;;;;;5075895;28;20441;-83
2023/09/28 06:00:15;;;;;;;14.70;11.47;;;18.20;99.90;;;;;;5079243;28;20454;-80
2023/09/28 06:02:41;;;;;;;19.07;12.97;;;18.30;99.90;;;;;;5077297;28;20194;-80
2023/09/28 06:05:10;;;;;;;16.83;12.90;;;18.40;99.90;;;;;;5082036;28;20783;-81
2023/09/28 06:07:36;;;;;;;16.80;12.17;;;18.40;99.90;;;;;;5084087;28;20193;-80
2023/09/28 06:10:02;;;;;;;14.40;11.87;;;18.50;99.90;;;;;;5080676;28;21019;-84
2023/09/28 06:12:28;;;;;;;19.03;12.80;;;18.60;99.90;;;;;;5081250;28;20560;-83
2023/09/28 06:14:54;;;;;;;13.77;10.93;;;18.70;99.90;;;;;;5080725;28;20824;-83
2023/09/28 06:17:19;;;;;;;13.73;11.70;;;18.80;99.90;;;;;;5081271;28;20513;-81
2023/09/28 06:19:45;;;;;;;12.73;11.37;;;18.90;99.90;;;;;;5082496;28;20235;-80
2023/09/28 06:22:10;;;;;;;14.27;10.97;;;19.00;99.90;;;;;;5080997;28;20188;-80
2023/09/28 06:24:37;;;;;;;15.03;11.73;;;19.10;99.90;;;;;;5072240;28;20213;-80
2023/09/28 06:27:03;;;;;;;13.50;10.37;;;19.10;99.90;;;;;;5080978;28;20664;-83
2023/09/28 06:29:32;;;;;;;14.70;11.40;;;19.20;99.90;;;;;;5082718;28;20466;-81
2023/09/28 06:31:57;;;;;;;13.20;11.30;;;19.30;99.90;;;;;;5081860;28;20635;-81
2023/09/28 06:34:23;;;;;;;13.23;11.03;;;19.40;99.90;;;;;;5079972;28;20461;-83
2023/09/28 06:36:49;;;;;;;12.13;10.83;;;19.50;99.90;;;;;;5080919;28;20412;-82
2023/09/28 06:39:15;;;;;;;14.97;10.20;;;19.60;99.90;;;;;;5079343;28;20179;-80
2023/09/28 06:41:41;;;;;;;13.83;10.20;;;19.60;99.90;;;;;;5076841;28;20832;-80
2023/09/28 06:44:08;;;;;;;13.40;10.83;;;19.60;99.90;;;;;;5080094;28;20237;-80
2023/09/28 06:46:34;;;;;;;14.90;10.73;;;19.70;99.90;;;;;;5081586;28;20382;-82
2023/09/28 06:48:59;;;;;;;13.73;10.13;;;19.70;99.90;;;;;;5080011;28;20432;-83
2023/09/28 06:51:26;;;;;;;12.90;10.53;;;19.80;99.90;;;;;;5078029;28;21074;-80
2023/09/28 06:53:51;;;;;;;28.90;18.07;;;19.90;99.90;;;;;;5080256;28;20614;-83
2023/09/28 06:56:17;;;;;;;12.53;10.20;;;20.00;99.90;;;;;;5078414;28;20696;-80
2023/09/28 06:58:43;;;;;;;11.80;10.33;;;20.10;99.90;;;;;;5075483;28;21011;-80
2023/09/28 07:01:09;;;;;;;13.97;11.00;;;20.20;99.90;;;;;;5078921;28;20393;-81
2023/09/28 07:03:35;;;;;;;11.50;9.80;;;20.30;99.90;;;;;;5075338;28;20181;-81
2023/09/28 07:06:00;;;;;;;14.13;10.03;;;20.30;99.90;;;;;;5073670;28;21017;-83
2023/09/28 07:08:26;;;;;;;13.43;11.07;;;20.40;99.90;;;;;;5070179;28;20868;-83
2023/09/28 07:10:52;;;;;;;13.93;10.73;;;20.50;99.90;;;;;;5071423;28;20239;-80
2023/09/28 07:13:18;;;;;;;14.27;11.27;;;20.60;99.90;;;;;;5074243;28;20482;-81
2023/09/28 07:15:43;;;;;;;12.80;9.37;;;20.80;99.90;;;;;;5071553;28;20351;-83
2023/09/28 07:18:09;;;;;;;15.87;10.67;;;20.80;99.90;;;;;;5073167;28;20190;-81
2023/09/28 07:20:38;;;;;;;14.30;10.03;;;21.00;99.90;;;;;;5072510;28;20436;-84
2023/09/28 07:23:04;;;;;;;12.27;10.03;;;21.10;99.90;;;;;;5071242;28;20185;-84
2023/09/28 07:25:29;;;;;;;14.57;11.90;;;21.10;99.90;;;;;;5076993;28;20464;-83
2023/09/28 07:27:56;;;;;;;12.97;10.30;;;21.20;99.90;;;;;;5075661;28;20177;-83
2023/09/28 07:30:25;;;;;;;17.97;13.60;;;21.30;99.90;;;;;;5079313;28;20212;-83
2023/09/28 07:32:51;;;;;;;19.53;13.90;;;21.40;99.90;;;;;;5070807;28;20981;-80
2023/09/28 07:35:18;;;;;;;11.57;9.60;;;21.60;99.90;;;;;;5075793;28;20451;-81
2023/09/28 07:37:44;;;;;;;12.30;10.27;;;21.70;99.90;;;;;;5079939;28;20922;-82
2023/09/28 07:40:12;;;;;;;11.13;9.93;;;21.80;99.90;;;;;;5076684;28;20453;-81
2023/09/28 07:42:43;;;;;;;12.33;9.43;;;22.00;99.90;;;;;;5070235;28;20855;-83
2023/09/28 07:45:11;;;;;;;13.93;10.50;;;22.10;99.90;;;;;;5068318;28;20453;-83
2023/09/28 07:47:38;;;;;;;12.87;10.23;;;22.20;99.90;;;;;;5066864;28;20441;-80
2023/09/28 07:50:05;;;;;;;16.37;10.60;;;22.30;99.90;;;;;;5068440;28;20821;-81
2023/09/28 07:52:30;;;;;;;11.10;9.23;;;22.40;99.90;;;;;;5071344;28;21432;-83
2023/09/28 07:54:56;;;;;;;11.47;9.90;;;22.50;99.90;;;;;;5076257;28;20555;-83
2023/09/28 07:57:22;;;;;;;12.33;9.77;;;22.70;99.90;;;;;;5074198;28;20206;-84
2023/09/28 07:59:48;;;;;;;11.57;9.10;;;22.90;99.90;;;;;;5078087;28;20204;-80
2023/09/28 08:02:14;;;;;;;10.70;9.67;;;23.20;99.90;;;;;;5076659;28;20515;-83
2023/09/28 08:04:39;;;;;;;10.37;8.60;;;23.50;99.90;;;;;;5075042;28;20778;-81
2023/09/28 08:07:06;;;;;;;9.97;8.90;;;24.00;99.90;;;;;;5073117;28;20427;-83
2023/09/28 08:09:33;;;;;;;12.27;10.13;;;24.60;99.90;;;;;;5080724;28;20656;-81
2023/09/28 08:11:59;;;;;;;11.10;8.53;;;25.30;99.90;;;;;;5078090;28;20473;-82
2023/09/28 08:14:25;;;;;;;10.30;8.47;;;26.00;99.90;;;;;;5072474;28;20524;-82
2023/09/28 08:16:51;;;;;;;12.53;8.00;;;26.70;99.90;;;;;;5071211;28;20432;-83
2023/09/28 08:19:19;;;;;;;8.17;7.37;;;27.30;99.90;;;;;;5072267;28;20809;-82
2023/09/28 08:21:45;;;;;;;12.43;8.57;;;28.10;99.90;;;;;;5073702;28;20421;-83
2023/09/28 08:24:12;;;;;;;9.30;7.53;;;28.80;99.90;;;;;;5078070;28;21047;-81
2023/09/28 08:26:38;;;;;;;8.70;7.87;;;29.50;99.90;;;;;;5070595;28;20427;-82
2023/09/28 08:29:04;;;;;;;10.47;8.63;;;30.00;99.90;;;;;;5075609;28;20441;-82
2023/09/28 08:31:31;;;;;;;7.73;7.03;;;30.40;99.90;;;;;;5072552;28;20470;-81
2023/09/28 08:33:59;;;;;;;8.00;6.70;;;30.80;99.90;;;;;;5075892;28;20932;-81
2023/09/28 08:36:28;;;;;;;7.83;7.10;;;31.20;99.90;;;;;;5072913;28;20445;-82
2023/09/28 08:38:54;;;;;;;8.10;7.30;;;31.60;99.60;;;;;;5078738;28;20428;-84
2023/09/28 08:41:44;;;;;;;9.40;7.50;;;31.80;99.90;;;;;;5071460;28;20453;-82
2023/09/28 08:44:11;;;;;;;8.43;7.43;;;32.10;98.20;;;;;;5073924;28;20588;-84
2023/09/28 08:46:40;;;;;;;7.03;6.33;;;32.30;97.50;;;;;;5074920;28;20447;-84
2023/09/28 08:49:10;;;;;;;9.10;7.50;;;32.40;97.90;;;;;;5072536;28;20440;-83
2023/09/28 08:51:40;;;;;;;7.53;6.40;;;32.30;97.40;;;;;;5069213;28;20852;-82
2023/09/28 08:54:06;;;;;;;7.70;6.50;;;32.10;96.30;;;;;;5070879;28;20909;-84
2023/09/28 08:56:35;;;;;;;10.47;8.93;;;31.80;94.60;;;;;;5073107;28;20479;-82
2023/09/28 08:59:02;;;;;;;8.50;7.50;;;31.30;94.30;;;;;;5072596;28;21038;-84
2023/09/28 09:01:30;;;;;;;7.67;6.87;;;30.70;95.10;;;;;;5071745;28;20506;-81
2023/09/28 09:03:57;;;;;;;7.40;6.70;;;30.30;95.50;;;;;;5066108;28;20435;-81
2023/09/28 09:06:28;;;;;;;6.67;6.07;;;30.00;94.80;;;;;;5067627;28;21285;-84
2023/09/28 09:08:59;;;;;;;6.43;5.67;;;29.60;94.60;;;;;;5073520;28;20461;-82
2023/09/28 09:11:30;;;;;;;6.47;5.87;;;29.30;94.00;;;;;;5071722;28;21082;-83
2023/09/28 09:13:56;;;;;;;6.67;5.63;;;29.00;94.70;;;;;;5089522;28;20510;-83
2023/09/28 09:16:24;;;;;;;6.83;6.10;;;28.70;94.80;;;;;;5071737;28;20504;-83
2023/09/28 09:18:52;;;;;;;5.73;5.07;;;28.60;95.10;;;;;;5066758;28;20771;-82
2023/09/28 09:21:19;;;;;;;9.53;5.30;;;28.40;95.70;;;;;;5070727;28;20895;-81
2023/09/28 09:24:00;;;;;;;7.10;5.20;;;28.30;94.10;;;;;;5060940;28;21218;-83
2023/09/28 09:26:26;;;;;;;6.17;4.97;;;28.20;93.90;;;;;;5071829;28;20475;-81
2023/09/28 09:28:58;;;;;;;8.03;5.67;;;28.10;94.60;;;;;;5076258;28;20603;-81
2023/09/28 09:31:24;;;;;;;6.63;4.97;;;28.00;95.20;;;;;;5072879;28;20477;-83
2023/09/28 09:33:50;;;;;;;6.17;4.63;;;27.90;94.50;;;;;;5077449;28;20479;-82
2023/09/28 09:36:18;;;;;;;7.83;5.87;;;27.90;95.70;;;;;;5076718;28;20471;-79
2023/09/28 09:38:45;;;;;;;9.97;5.60;;;27.80;94.40;;;;;;5076934;28;20397;-83
2023/09/28 09:41:11;;;;;;;8.10;5.10;;;27.70;94.50;;;;;;5075942;28;20455;-83
2023/09/28 09:43:40;;;;;;;5.60;5.10;;;27.50;94.00;;;;;;5076232;28;20433;-82
2023/09/28 09:46:07;;;;;;;7.07;5.40;;;27.50;94.50;;;;;;5073418;28;20366;-82
2023/09/28 09:48:44;;;;;;;5.37;4.57;;;27.40;95.10;;;;;;5089227;28;20444;-81
2023/09/28 09:51:13;;;;;;;6.13;5.27;;;27.40;94.50;;;;;;5077101;28;20464;-83
2023/09/28 09:53:40;;;;;;;5.70;5.20;;;27.30;95.40;;;;;;5077392;28;20472;-80
2023/09/28 09:56:07;;;;;;;5.97;5.23;;;27.30;95.10;;;;;;5075790;28;20628;-83
2023/09/28 09:58:55;;;;;;;10.50;4.70;;;27.20;94.30;;;;;;5079336;28;20438;-82
2023/09/28 10:01:22;;;;;;;8.00;5.20;;;27.20;94.60;;;;;;5080140;28;20511;-82
2023/09/28 10:03:51;;;;;;;7.87;5.17;;;27.20;95.40;;;;;;5080936;28;20448;-83
2023/09/28 10:06:19;;;;;;;6.70;4.40;;;27.20;94.00;;;;;;5076429;28;21004;-83
2023/09/28 10:08:47;;;;;;;5.43;4.90;;;27.20;94.30;;;;;;5081497;28;20428;-82
2023/09/28 10:11:13;;;;;;;6.53;4.63;;;27.20;95.30;;;;;;5079673;28;20736;-81
2023/09/28 10:13:39;;;;;;;5.27;4.33;;;27.20;95.40;;;;;;5070270;28;20489;-81
2023/09/28 10:16:12;;;;;;;5.27;4.60;;;27.20;95.30;;;;;;5074618;28;20442;-81
2023/09/28 10:18:40;;;;;;;5.00;4.57;;;27.20;94.10;;;;;;5077455;28;20468;-82
2023/09/28 10:21:07;;;;;;;5.90;4.20;;;27.30;93.70;;;;;;5071952;28;20474;-82
2023/09/28 10:23:33;;;;;;;6.83;4.67;;;27.30;93.70;;;;;;5066781;28;21307;-83
2023/09/28 10:26:03;;;;;;;6.27;4.90;;;27.20;95.30;;;;;;5070269;28;20855;-83
2023/09/28 10:28:33;;;;;;;6.17;5.17;;;27.20;93.70;;;;;;5073279;28;20182;-82
2023/09/28 10:31:07;;;;;;;7.80;5.43;;;27.30;94.30;;;;;;5071398;28;21066;-83
2023/09/28 10:38:23;;;;;;;7.90;4.37;;;27.20;93.30;;;;;;5118534;27;21111;-81
2023/09/28 10:41:00;;;;;;;5.20;4.60;;;27.20;93.40;;;;;;5100205;28;20517;-81
2023/09/28 10:43:32;;;;;;;6.57;4.43;;;27.10;94.90;;;;;;5103074;28;20431;-81
2023/09/28 10:46:05;;;;;;;5.97;4.83;;;27.20;93.70;;;;;;5100186;28;20532;-81
2023/09/28 10:48:44;;;;;;;4.67;4.07;;;27.20;93.70;;;;;;5102732;28;21061;-83
2023/09/28 10:51:16;;;;;;;5.70;4.70;;;27.20;92.90;;;;;;5096784;28;20491;-83
2023/09/28 10:53:43;;;;;;;5.73;4.60;;;27.30;93.00;;;;;;5089256;28;20420;-83
2023/09/28 10:56:10;;;;;;;5.97;4.60;;;27.30;93.00;;;;;;5105554;28;20494;-82
2023/09/28 10:58:41;;;;;;;5.23;4.73;;;27.40;92.70;;;;;;5102546;28;20435;-81
2023/09/28 11:01:07;;;;;;;4.30;3.90;;;27.40;92.70;;;;;;5106782;28;20574;-83
2023/09/28 11:03:34;;;;;;;4.60;4.20;;;27.40;93.50;;;;;;5102538;28;20944;-81
2023/09/28 11:06:04;;;;;;;5.10;4.60;;;27.40;93.80;;;;;;5100473;28;21099;-80
2023/09/28 11:08:33;;;;;;;5.40;4.10;;;27.50;93.60;;;;;;5101265;28;20495;-83
2023/09/28 11:11:01;;;;;;;4.83;4.13;;;27.50;92.80;;;;;;5100633;28;20460;-82
2023/09/28 11:13:30;;;;;;;4.87;4.10;;;27.60;92.80;;;;;;5104693;28;20861;-82
2023/09/28 11:15:57;;;;;;;4.47;3.80;;;27.50;94.20;;;;;;5100676;28;20550;-83
2023/09/28 11:18:25;;;;;;;4.80;3.97;;;27.60;93.60;;;;;;5099408;28;20509;-82
2023/09/28 11:20:51;;;;;;;5.40;3.77;;;27.60;91.70;;;;;;5101614;28;20464;-83
2023/09/28 11:23:17;;;;;;;5.83;3.83;;;27.70;91.90;;;;;;5121377;27;20447;-82
2023/09/28 11:25:43;;;;;;;4.20;3.80;;;27.70;91.70;;;;;;5101124;28;20445;-83
2023/09/28 11:28:10;;;;;;;6.73;3.80;;;27.80;92.00;;;;;;5103949;28;20410;-83
2023/09/28 11:30:36;;;;;;;6.53;3.27;;;27.70;94.10;;;;;;5103973;28;20233;-84
2023/09/28 11:33:07;;;;;;;4.10;3.33;;;27.70;91.10;;;;;;5099942;27;20505;-82
2023/09/28 11:35:39;;;;;;;3.47;3.17;;;27.80;90.30;;;;;;5096099;28;20817;-81
2023/09/28 11:38:09;;;;;;;3.70;3.40;;;27.90;89.90;;;;;;5108048;28;21018;-82
2023/09/28 11:40:37;;;;;;;2.97;2.67;;;27.80;88.00;;;;;;5113914;28;20441;-83
2023/09/28 11:43:03;;;;;;;3.60;3.13;;;27.90;85.70;;;;;;5105955;28;20433;-81
2023/09/28 11:45:36;;;;;;;5.07;3.70;;;27.90;85.00;;;;;;5113905;28;20761;-81
2023/09/28 11:48:12;;;;;;;5.60;3.43;;;27.90;84.90;;;;;;5104719;28;20641;-83
2023/09/28 11:50:39;;;;;;;3.93;3.53;;;27.90;90.90;;;;;;5093492;28;20441;-83
2023/09/28 11:53:08;;;;;;;8.10;3.33;;;27.90;92.30;;;;;;5097145;28;20874;-83
2023/09/28 11:55:35;;;;;;;4.20;2.90;;;27.90;91.70;;;;;;5093661;28;20886;-81
2023/09/28 11:58:02;;;;;;;3.60;2.90;;;27.90;92.20;;;;;;5095189;28;21004;-84
2023/09/28 12:00:28;;;;;;;3.03;2.73;;;27.90;90.20;;;;;;5087822;28;20855;-83
2023/09/28 12:02:54;;;;;;;5.30;3.10;;;27.90;90.80;;;;;;5089080;28;20737;-82
2023/09/28 12:05:21;;;;;;;5.93;3.53;;;28.00;91.60;;;;;;5099811;28;20611;-84
2023/09/28 12:07:46;;;;;;;3.43;3.13;;;28.00;92.30;;;;;;5100234;28;20442;-84
2023/09/28 12:10:14;;;;;;;6.17;3.77;;;28.00;87.10;;;;;;5088662;28;20580;-82
2023/09/28 12:12:40;;;;;;;3.57;3.27;;;28.00;89.90;;;;;;5087112;28;20173;-82
2023/09/28 12:15:10;;;;;;;5.57;2.97;;;28.00;91.00;;;;;;5085776;28;20566;-83
2023/09/28 12:17:39;;;;;;;6.97;3.80;;;28.00;91.50;;;;;;5089278;28;20479;-82
2023/09/28 12:20:12;;;;;;;4.30;3.63;;;28.00;87.90;;;;;;5094896;28;20715;-82
2023/09/28 12:22:39;;;;;;;3.67;3.33;;;28.00;87.30;;;;;;5097679;28;20786;-83
2023/09/28 12:25:05;;;;;;;7.00;3.73;;;28.00;85.90;;;;;;5096118;28;20444;-84
2023/09/28 12:27:32;;;;;;;3.93;3.33;;;28.00;90.60;;;;;;5086161;28;20433;-83
2023/09/28 12:29:59;;;;;;;9.60;3.93;;;28.00;90.10;;;;;;5088080;28;20434;-82
2023/09/28 12:32:26;;;;;;;4.27;3.27;;;28.00;91.00;;;;;;5088746;28;20427;-81
2023/09/28 12:34:52;;;;;;;5.70;3.97;;;28.00;91.20;;;;;;5095520;28;20533;-82
2023/09/28 12:37:18;;;;;;;5.00;3.70;;;28.00;91.40;;;;;;5091685;28;21315;-84
2023/09/28 12:39:43;;;;;;;4.10;3.77;;;28.00;92.50;;;;;;5092762;28;20210;-83
2023/09/28 12:42:13;;;;;;;3.90;3.60;;;28.10;87.60;;;;;;5086841;28;20662;-82
2023/09/28 12:44:39;;;;;;;3.80;3.37;;;28.00;90.10;;;;;;5097478;28;20197;-84